Time;durP1;ratioP1;P1;durP2;ratioP2;P2;SDS_P1;SDS_P2;PMS_P1;PMS_P2;Temp;Humidity;BMP_temperature;BMP_pressure;BME280_temperature;BME280_humidity;BME280_pressure;Samples;Min_cycle;Max_cycle;Signal;HPM_P1;HPM_P2
2023/10/04 00:01:38;;;;;;;;;1.67;1.67;;;;;16.41;100.00;102742.47;5062924;28;45502;-76
2023/10/04 00:04:04;;;;;;;;;1.33;1.33;;;;;16.39;100.00;102743.31;5057151;28;46813;-76
2023/10/04 00:06:31;;;;;;;;;1.00;1.00;;;;;16.39;100.00;102738.88;5062106;28;45554;-76
2023/10/04 00:09:00;;;;;;;;;3.00;0.00;;;;;16.36;100.00;102733.50;5067869;27;45440;-76
2023/10/04 00:11:31;;;;;;;;;2.00;1.00;;;;;16.35;100.00;102731.72;5056885;28;45308;-76
2023/10/04 00:13:56;;;;;;;;;3.00;0.67;;;;;16.32;100.00;102731.63;5052348;28;46103;-75
2023/10/04 00:16:22;;;;;;;;;2.00;0.67;;;;;16.33;100.00;102736.09;5063910;28;45504;-75
2023/10/04 00:18:49;;;;;;;;;1.00;1.00;;;;;16.32;100.00;102741.41;5085401;27;45417;-76
2023/10/04 00:21:15;;;;;;;;;2.00;1.00;;;;;16.30;100.00;102729.81;5058955;28;45533;-76
2023/10/04 00:23:40;;;;;;;;;2.67;1.00;;;;;16.27;100.00;102727.09;5076513;27;47081;-76
2023/10/04 00:26:07;;;;;;;;;1.00;1.00;;;;;16.21;100.00;102722.56;5063255;28;58448;-75
2023/10/04 00:28:33;;;;;;;;;1.00;1.00;;;;;16.17;100.00;102726.03;5063400;28;45339;-75
2023/10/04 00:30:59;;;;;;;;;4.33;1.00;;;;;16.16;100.00;102732.22;5058249;28;45611;-76
2023/10/04 00:33:26;;;;;;;;;2.67;0.00;;;;;16.11;100.00;102734.81;5060502;28;45692;-75
2023/10/04 00:35:51;;;;;;;;;2.00;1.00;;;;;16.09;100.00;102733.91;5057065;28;46616;-75
2023/10/04 00:38:19;;;;;;;;;0.00;0.00;;;;;16.07;100.00;102727.63;5058161;28;45303;-75
2023/10/04 00:40:47;;;;;;;;;3.00;1.00;;;;;16.04;100.00;102732.91;5064989;28;45347;-77
2023/10/04 00:43:15;;;;;;;;;0.33;0.33;;;;;16.01;100.00;102730.19;5070082;27;46769;-76
2023/10/04 00:45:49;;;;;;;;;0.67;0.33;;;;;15.95;100.00;102740.72;5059906;28;45356;-75
2023/10/04 00:48:23;;;;;;;;;2.33;1.33;;;;;15.87;100.00;102729.94;5062185;28;45458;-76
2023/10/04 00:50:48;;;;;;;;;2.00;2.00;;;;;15.81;100.00;102731.53;5055882;28;45283;-77
2023/10/04 00:53:15;;;;;;;;;2.67;0.67;;;;;15.77;100.00;102727.94;5058776;28;45649;-76
2023/10/04 00:55:45;;;;;;;;;2.00;1.00;;;;;15.73;100.00;102730.50;5059278;28;45580;-75
2023/10/04 00:58:12;;;;;;;;;2.67;1.00;;;;;15.69;100.00;102734.88;5055982;28;45424;-76
2023/10/04 01:00:45;;;;;;;;;1.00;1.00;;;;;15.65;100.00;102736.56;5058294;28;45549;-75
2023/10/04 01:03:11;;;;;;;;;2.33;1.00;;;;;15.63;100.00;102738.31;5062398;28;46648;-76
2023/10/04 01:05:47;;;;;;;;;3.00;1.33;;;;;15.57;100.00;102738.16;5058422;28;45549;-75
2023/10/04 01:08:15;;;;;;;;;1.33;0.00;;;;;15.54;100.00;102742.50;5057937;28;46081;-76
2023/10/04 01:10:40;;;;;;;;;2.33;1.00;;;;;15.50;100.00;102743.28;5060062;28;45665;-76
2023/10/04 01:13:06;;;;;;;;;1.00;1.00;;;;;15.46;100.00;102745.03;5057477;27;46049;-75
2023/10/04 01:15:36;;;;;;;;;1.00;1.00;;;;;15.42;100.00;102748.47;5046113;28;70116;-76
2023/10/04 01:18:06;;;;;;;;;1.00;1.00;;;;;15.39;100.00;102745.72;5068627;28;45411;-76
2023/10/04 01:20:33;;;;;;;;;2.33;1.00;;;;;15.40;100.00;102755.53;5062199;28;45336;-76
2023/10/04 01:23:02;;;;;;;;;0.00;0.00;;;;;15.38;100.00;102759.91;5066253;28;47628;-76
2023/10/04 01:25:29;;;;;;;;;3.00;1.00;;;;;15.38;100.00;102762.56;5061304;27;45727;-76
2023/10/04 01:27:54;;;;;;;;;2.00;2.00;;;;;15.37;100.00;102752.78;5057771;28;45518;-75
2023/10/04 01:30:20;;;;;;;;;1.67;1.00;;;;;15.35;100.00;102752.78;5062659;27;45525;-75
2023/10/04 01:32:47;;;;;;;;;2.00;1.00;;;;;15.34;100.00;102748.31;5057347;28;45341;-77
2023/10/04 01:35:13;;;;;;;;;4.33;1.00;;;;;15.34;100.00;102758.03;5064592;28;45356;-75
2023/10/04 01:37:39;;;;;;;;;5.67;1.00;;;;;15.31;100.00;102750.91;5062155;28;45849;-75
2023/10/04 01:40:12;;;;;;;;;3.00;1.00;;;;;15.28;100.00;102747.25;5064397;28;45343;-75
2023/10/04 01:42:41;;;;;;;;;0.67;0.67;;;;;15.26;100.00;102743.69;5064580;28;46472;-76
2023/10/04 01:45:11;;;;;;;;;2.00;1.00;;;;;15.26;100.00;102747.22;5065610;27;46624;-75
2023/10/04 01:47:38;;;;;;;;;5.00;1.67;;;;;15.26;100.00;102738.34;5057529;28;45475;-76
2023/10/04 01:50:09;;;;;;;;;1.00;1.00;;;;;15.27;100.00;102722.41;5065086;28;45607;-76
2023/10/04 01:52:36;;;;;;;;;2.67;1.33;;;;;15.29;100.00;102735.78;5058770;28;47589;-76
2023/10/04 01:55:04;;;;;;;;;1.67;1.00;;;;;15.28;100.00;102721.53;5055970;28;45498;-76
2023/10/04 01:57:30;;;;;;;;;1.00;1.00;;;;;15.24;100.00;102709.06;5059680;28;45492;-75
2023/10/04 01:59:55;;;;;;;;;3.00;2.00;;;;;15.22;100.00;102705.44;5060436;28;61547;-75
2023/10/04 02:02:22;;;;;;;;;3.00;0.33;;;;;15.25;100.00;102712.63;5058423;28;68985;-77
2023/10/04 02:04:53;;;;;;;;;2.00;2.00;;;;;15.29;100.00;102711.81;5066427;28;45538;-76
2023/10/04 02:07:23;;;;;;;;;1.67;1.00;;;;;15.26;100.00;102706.41;5067060;27;45514;-75
2023/10/04 02:09:51;;;;;;;;;2.00;0.67;;;;;15.25;100.00;102697.53;5062641;27;45336;-75
2023/10/04 02:12:18;;;;;;;;;1.00;1.00;;;;;15.26;100.00;102696.66;5066573;28;46856;-75
2023/10/04 02:14:45;;;;;;;;;5.00;2.00;;;;;15.28;100.00;102705.56;5044404;28;46200;-75
2023/10/04 02:17:15;;;;;;;;;4.67;1.00;;;;;15.31;100.00;102705.66;5061686;28;45391;-76
2023/10/04 02:19:41;;;;;;;;;4.33;0.00;;;;;15.31;100.00;102705.66;5059521;28;45522;-75
2023/10/04 02:22:07;;;;;;;;;2.67;1.00;;;;;15.31;100.00;102710.06;5059483;28;46456;-75
2023/10/04 02:24:32;;;;;;;;;2.00;0.67;;;;;15.30;100.00;102706.53;5057503;28;45529;-75
2023/10/04 02:27:01;;;;;;;;;1.00;1.00;;;;;15.32;100.00;102695.91;5065726;28;45471;-76
2023/10/04 02:29:27;;;;;;;;;2.00;1.00;;;;;15.33;100.00;102697.69;5067674;28;45434;-75
2023/10/04 02:31:54;;;;;;;;;1.00;1.00;;;;;15.35;100.00;102690.66;5055745;28;45755;-76
2023/10/04 02:34:21;;;;;;;;;4.67;1.00;;;;;15.34;100.00;102681.78;5065485;28;45408;-76
2023/10/04 02:36:48;;;;;;;;;7.00;1.00;;;;;15.35;100.00;102686.22;5063007;28;45627;-76
2023/10/04 02:39:13;;;;;;;;;2.00;0.33;;;;;15.35;100.00;102688.88;5065400;28;45416;-77
2023/10/04 02:41:41;;;;;;;;;6.00;1.00;;;;;15.34;100.00;102686.16;5058161;27;57154;-75
2023/10/04 02:44:08;;;;;;;;;2.00;0.00;;;;;15.35;100.00;102691.53;5057755;28;45360;-75
2023/10/04 02:46:33;;;;;;;;;1.00;1.00;;;;;15.36;100.00;102687.13;5058700;28;45594;-76
2023/10/04 02:49:00;;;;;;;;;5.00;2.00;;;;;15.35;100.00;102702.19;5056107;28;45316;-76
2023/10/04 02:51:26;;;;;;;;;0.67;0.67;;;;;15.34;100.00;102707.47;5055053;28;46706;-75
2023/10/04 02:53:51;;;;;;;;;1.33;1.33;;;;;15.31;100.00;102718.06;5056053;28;48814;-76
2023/10/04 02:56:16;;;;;;;;;2.67;1.00;;;;;15.28;100.00;102716.22;5055399;27;62634;-76
2023/10/04 02:58:42;;;;;;;;;2.00;1.00;;;;;15.26;100.00;102717.06;5057172;28;52673;-76
2023/10/04 03:01:08;;;;;;;;;2.67;1.00;;;;;15.20;100.00;102709.84;5064254;28;45737;-75
2023/10/04 03:03:35;;;;;;;;;2.00;1.00;;;;;15.19;100.00;102719.59;5061191;27;45336;-76
2023/10/04 03:06:01;;;;;;;;;3.33;1.00;;;;;15.14;100.00;102723.03;5054222;28;45453;-75
2023/10/04 03:08:27;;;;;;;;;5.00;1.67;;;;;15.15;100.00;102725.69;5056826;28;61130;-75
2023/10/04 03:10:55;;;;;;;;;3.33;1.00;;;;;15.11;100.00;102729.16;5064330;28;46394;-76
2023/10/04 03:13:24;;;;;;;;;2.00;1.00;;;;;15.07;100.00;102727.28;5063807;27;45676;-75
2023/10/04 03:15:51;;;;;;;;;2.67;1.00;;;;;15.07;100.00;102731.69;5054286;28;45511;-76
2023/10/04 03:18:21;;;;;;;;;0.00;0.00;;;;;15.05;100.00;102730.78;5067605;28;45644;-75
2023/10/04 03:21:10;;;;;;;;;2.00;1.00;;;;;15.05;100.00;102726.34;5058861;28;46100;-76
2023/10/04 03:23:35;;;;;;;;;1.33;1.00;;;;;15.07;100.00;102723.72;5048694;28;46122;-76
2023/10/04 03:26:03;;;;;;;;;2.67;1.00;;;;;15.07;100.00;102724.63;5055125;28;45408;-76
2023/10/04 03:28:33;;;;;;;;;0.33;0.00;;;;;15.05;100.00;102715.72;5058972;28;45649;-76
2023/10/04 03:31:04;;;;;;;;;1.33;1.00;;;;;15.05;100.00;102717.47;5087356;27;47795;-77
2023/10/04 03:33:33;;;;;;;;;1.67;1.67;;;;;15.08;100.00;102718.47;5054886;28;45424;-75
2023/10/04 03:35:59;;;;;;;;;1.00;0.00;;;;;15.08;100.00;102707.81;5055611;28;45531;-75
2023/10/04 03:38:25;;;;;;;;;2.00;1.00;;;;;15.12;100.00;102699.00;5053926;28;45311;-76
2023/10/04 03:40:55;;;;;;;;;1.67;1.00;;;;;15.08;100.00;102706.91;5053889;28;47456;-76
2023/10/04 03:43:21;;;;;;;;;2.67;1.00;;;;;15.06;100.00;102712.19;5037929;28;46278;-75
2023/10/04 03:45:46;;;;;;;;;3.00;1.00;;;;;15.07;100.00;102713.97;5053578;28;66977;-75
2023/10/04 03:48:17;;;;;;;;;3.00;1.33;;;;;15.09;100.00;102716.69;5055050;28;45466;-77
2023/10/04 03:50:45;;;;;;;;;3.33;1.33;;;;;15.02;100.00;102714.75;5055104;28;46489;-76
2023/10/04 03:53:10;;;;;;;;;2.00;0.33;;;;;15.01;100.00;102716.50;5058705;28;45305;-76
2023/10/04 03:55:36;;;;;;;;;4.33;1.00;;;;;15.00;100.00;102711.16;5058885;28;45385;-76
2023/10/04 03:58:04;;;;;;;;;1.00;1.00;;;;;14.95;100.00;102711.03;5057663;28;45543;-76
2023/10/04 04:00:32;;;;;;;;;2.67;1.00;;;;;14.89;100.00;102714.47;5057349;28;46848;-77
2023/10/04 04:02:58;;;;;;;;;3.67;2.00;;;;;14.91;100.00;102710.09;5058619;28;45626;-76
2023/10/04 04:05:23;;;;;;;;;2.67;1.00;;;;;14.86;100.00;102714.41;5058729;28;45569;-77
2023/10/04 04:07:49;;;;;;;;;1.67;1.00;;;;;14.81;100.00;102718.72;5058563;28;45523;-75
2023/10/04 04:10:16;;;;;;;;;1.00;1.00;;;;;14.79;100.00;102719.53;5057186;28;45969;-77
2023/10/04 04:12:42;;;;;;;;;1.00;1.00;;;;;14.74;100.00;102716.75;5057326;28;45659;-76
2023/10/04 04:15:08;;;;;;;;;1.00;1.00;;;;;14.73;100.00;102720.28;5055586;28;45406;-75
2023/10/04 04:17:35;;;;;;;;;1.67;1.33;;;;;14.74;100.00;102731.81;5058139;28;45531;-75
2023/10/04 04:20:03;;;;;;;;;4.67;1.00;;;;;14.75;100.00;102722.97;5056924;28;47327;-76
2023/10/04 04:22:29;;;;;;;;;3.00;1.00;;;;;14.75;100.00;102722.97;5057889;28;45565;-76
2023/10/04 04:24:55;;;;;;;;;2.00;2.00;;;;;14.74;100.00;102722.06;5054630;28;58761;-78
2023/10/04 04:27:23;;;;;;;;;3.00;2.00;;;;;14.70;100.00;102736.19;5057678;28;53971;-76
2023/10/04 04:29:52;;;;;;;;;1.00;1.00;;;;;14.69;100.00;102734.34;5060909;28;46257;-76
2023/10/04 04:32:26;;;;;;;;;1.00;1.00;;;;;14.65;100.00;102728.09;5056256;28;46962;-75
2023/10/04 04:34:55;;;;;;;;;1.67;1.00;;;;;14.67;100.00;102728.13;5057436;28;45380;-76
2023/10/04 04:37:23;;;;;;;;;3.00;1.33;;;;;14.66;100.00;102729.88;5058114;28;45290;-76
2023/10/04 04:39:48;;;;;;;;;1.00;1.00;;;;;14.65;100.00;102724.53;5057966;28;46457;-76
2023/10/04 04:42:20;;;;;;;;;4.00;1.00;;;;;14.67;100.00;102726.34;5056673;28;45574;-76
2023/10/04 04:44:45;;;;;;;;;3.33;0.33;;;;;14.62;100.00;102728.00;5047245;28;45345;-76
2023/10/04 04:47:11;;;;;;;;;3.00;1.00;;;;;14.61;100.00;102731.53;5057702;28;56344;-75
2023/10/04 04:49:37;;;;;;;;;4.00;2.00;;;;;14.57;100.00;102728.75;5057321;28;46851;-76
2023/10/04 04:52:05;;;;;;;;;1.00;1.00;;;;;14.55;100.00;102722.50;5058113;28;45239;-75
2023/10/04 04:54:31;;;;;;;;;2.33;1.33;;;;;14.54;100.00;102726.94;5056817;28;45593;-76
2023/10/04 04:56:57;;;;;;;;;0.33;0.33;;;;;14.52;100.00;102725.97;5057139;28;45438;-75
2023/10/04 04:59:24;;;;;;;;;1.00;1.00;;;;;14.49;100.00;102720.59;5090612;27;45650;-75
2023/10/04 05:01:51;;;;;;;;;4.67;2.00;;;;;14.47;100.00;102716.97;5057045;28;45622;-76
2023/10/04 05:04:18;;;;;;;;;3.67;1.00;;;;;14.45;100.00;102721.34;5057160;28;45334;-76
2023/10/04 05:06:43;;;;;;;;;3.33;3.00;;;;;14.42;100.00;102724.78;5040111;28;45575;-75
2023/10/04 05:09:10;;;;;;;;;5.00;2.00;;;;;14.40;100.00;102722.97;5055844;28;69776;-75
2023/10/04 05:11:37;;;;;;;;;2.00;2.00;;;;;14.36;100.00;102723.75;5056087;28;45397;-75
2023/10/04 05:14:06;;;;;;;;;5.00;2.00;;;;;14.40;100.00;102725.63;5054278;28;45619;-76
2023/10/04 05:16:31;;;;;;;;;4.33;2.00;;;;;14.38;100.00;102725.59;5054891;28;45589;-75
2023/10/04 05:18:58;;;;;;;;;2.00;2.00;;;;;14.37;100.00;102726.44;5054364;28;66603;-75
2023/10/04 05:21:23;;;;;;;;;3.67;2.00;;;;;14.35;100.00;102725.50;5055965;28;45966;-76
2023/10/04 05:23:49;;;;;;;;;1.67;1.00;;;;;14.35;100.00;102729.94;5057243;28;45416;-76
2023/10/04 05:26:14;;;;;;;;;3.00;1.33;;;;;14.35;100.00;102729.94;5057923;28;45324;-74
2023/10/04 05:28:40;;;;;;;;;4.00;3.00;;;;;14.32;100.00;102735.16;5055884;28;45531;-76
2023/10/04 05:31:08;;;;;;;;;1.67;1.00;;;;;14.32;100.00;102738.69;5056781;28;45672;-75
2023/10/04 05:33:35;;;;;;;;;3.00;2.00;;;;;14.31;100.00;102741.34;5053748;28;45307;-75
2023/10/04 05:36:01;;;;;;;;;5.00;2.00;;;;;14.32;100.00;102740.47;5056418;28;45384;-75
2023/10/04 05:38:28;;;;;;;;;2.00;2.00;;;;;14.31;100.00;102734.25;5057196;28;45543;-76
2023/10/04 05:40:54;;;;;;;;;3.67;2.00;;;;;14.35;100.00;102730.81;5055230;28;46126;-71
2023/10/04 05:43:19;;;;;;;;;4.00;1.00;;;;;14.32;100.00;102730.72;5055850;28;45404;-73
2023/10/04 05:45:47;;;;;;;;;1.67;1.67;;;;;14.32;100.00;102728.06;5055435;28;45534;-73
2023/10/04 05:48:19;;;;;;;;;1.00;1.00;;;;;14.32;100.00;102722.75;5053978;28;46281;-76
2023/10/04 05:50:54;;;;;;;;;1.67;1.00;;;;;14.32;100.00;102733.38;5054661;28;45424;-74
2023/10/04 05:53:22;;;;;;;;;1.00;1.00;;;;;14.28;100.00;102712.03;5055411;28;45730;-73
2023/10/04 05:55:50;;;;;;;;;1.33;1.33;;;;;14.26;100.00;102727.91;5055973;28;45512;-73
2023/10/04 05:58:17;;;;;;;;;2.33;2.00;;;;;14.25;100.00;102730.56;5056126;28;46546;-75
2023/10/04 06:00:42;;;;;;;;;3.00;1.67;;;;;14.23;100.00;102721.66;5054443;28;45603;-74
2023/10/04 06:03:11;;;;;;;;;2.67;2.67;;;;;14.23;100.00;102738.50;5054670;28;45527;-76
2023/10/04 06:05:40;;;;;;;;;3.00;2.00;;;;;14.22;100.00;102731.38;5058369;28;45625;-76
2023/10/04 06:08:11;;;;;;;;;4.33;2.00;;;;;14.18;100.00;102729.50;5048212;28;47858;-75
2023/10/04 06:10:37;;;;;;;;;1.67;1.00;;;;;14.21;100.00;102739.28;5053209;28;45640;-76
2023/10/04 06:13:02;;;;;;;;;3.67;2.00;;;;;14.31;100.00;102736.91;5065427;28;45494;-76
2023/10/04 06:15:30;;;;;;;;;5.00;2.00;;;;;14.22;100.00;102735.75;5068093;27;45688;-77
2023/10/04 06:17:57;;;;;;;;;3.00;3.00;;;;;14.23;100.00;102734.94;5059446;28;46055;-76
2023/10/04 06:20:30;;;;;;;;;3.00;1.33;;;;;14.20;100.00;102738.41;5036739;28;47879;-75
2023/10/04 06:22:59;;;;;;;;;6.33;4.00;;;;;14.20;100.00;102746.38;5051823;28;45634;-76
2023/10/04 06:25:26;;;;;;;;;4.00;3.00;;;;;14.21;100.00;102748.16;5038663;28;45624;-76
2023/10/04 06:27:56;;;;;;;;;4.33;3.00;;;;;14.25;100.00;102747.38;5058725;28;45604;-76
2023/10/04 06:30:31;;;;;;;;;6.00;2.00;;;;;14.26;100.00;102748.28;5051093;28;45610;-75
2023/10/04 06:32:59;;;;;;;;;3.67;2.00;;;;;14.29;100.00;102745.72;5041780;28;45985;-76
2023/10/04 06:35:25;;;;;;;;;3.67;2.33;;;;;14.31;100.00;102746.66;5046281;28;45802;-77
2023/10/04 06:37:55;;;;;;;;;2.67;2.67;;;;;14.33;100.00;102753.81;5056585;28;46622;-76
2023/10/04 06:40:21;;;;;;;;;4.00;2.00;;;;;14.33;100.00;102755.59;5053071;28;45625;-75
2023/10/04 06:42:48;;;;;;;;;3.00;1.33;;;;;14.40;100.00;102757.53;5055723;28;45910;-76
2023/10/04 06:45:18;;;;;;;;;4.00;4.00;;;;;14.43;100.00;102762.91;5053705;28;45621;-76
2023/10/04 06:47:47;;;;;;;;;9.67;4.00;;;;;14.48;100.00;102757.75;5048970;28;45775;-76
2023/10/04 06:50:20;;;;;;;;;3.67;1.00;;;;;14.55;100.00;102770.34;5047445;28;45839;-76
2023/10/04 06:52:47;;;;;;;;;3.00;2.00;;;;;14.60;100.00;102756.31;5047157;28;45658;-76
2023/10/04 06:55:13;;;;;;;;;3.67;2.00;;;;;14.67;100.00;102762.69;5055273;28;45510;-76
2023/10/04 06:57:39;;;;;;;;;4.00;3.00;;;;;14.72;100.00;102766.34;5057295;28;46572;-76
2023/10/04 07:00:15;;;;;;;;;3.33;2.00;;;;;14.77;100.00;102761.16;5032571;28;45586;-77
2023/10/04 07:02:45;;;;;;;;;7.00;3.33;;;;;14.81;100.00;102765.69;5059457;28;45458;-77
2023/10/04 07:05:16;;;;;;;;;5.67;3.67;;;;;14.86;100.00;102772.91;5050556;28;46639;-77
2023/10/04 07:07:43;;;;;;;;;2.67;2.00;;;;;14.92;100.00;102780.16;5049088;28;46537;-75
2023/10/04 07:10:09;;;;;;;;;4.00;2.00;;;;;14.99;100.00;102782.09;5052002;28;45641;-75
2023/10/04 07:12:34;;;;;;;;;2.67;2.67;;;;;15.06;100.00;102773.38;5036601;28;45539;-75
2023/10/04 07:15:00;;;;;;;;;4.67;3.00;;;;;15.13;100.00;102783.31;5060525;28;45507;-75
2023/10/04 07:17:29;;;;;;;;;4.67;3.67;;;;;15.21;100.00;102783.47;5054305;28;45842;-76
2023/10/04 07:19:57;;;;;;;;;3.00;3.00;;;;;15.26;100.00;102780.94;5054039;28;45485;-74
2023/10/04 07:22:29;;;;;;;;;7.00;5.67;;;;;15.33;100.00;102777.53;5051198;28;45885;-75
2023/10/04 07:24:55;;;;;;;;;10.33;6.00;;;;;15.39;100.00;102783.94;5051523;28;45487;-75
2023/10/04 07:27:20;;;;;;;;;4.00;4.00;;;;;15.46;100.00;102791.16;5042788;28;47529;-75
2023/10/04 07:29:45;;;;;;;;;5.00;3.33;;;;;15.54;100.00;102788.66;5055857;28;45613;-75
2023/10/04 07:32:13;;;;;;;;;8.00;3.33;;;;;15.62;100.00;102783.53;5054122;27;45761;-77
2023/10/04 07:34:39;;;;;;;;;5.67;3.67;;;;;15.66;100.00;102782.75;5048269;28;45574;-77
2023/10/04 07:37:04;;;;;;;;;2.67;1.33;;;;;15.73;100.00;102789.09;5057814;28;45569;-76
2023/10/04 07:39:32;;;;;;;;;1.00;1.00;;;;;15.76;100.00;102794.47;5053641;28;46045;-76
2023/10/04 07:41:57;;;;;;;;;4.00;3.00;;;;;15.79;100.00;102797.22;5034148;28;45460;-77
2023/10/04 07:44:25;;;;;;;;;3.00;2.00;;;;;15.82;100.00;102791.94;5036125;28;45582;-77
2023/10/04 07:46:50;;;;;;;;;2.33;1.00;;;;;15.90;100.00;102796.56;5055517;28;46849;-76
2023/10/04 07:49:16;;;;;;;;;5.33;4.00;;;;;15.97;100.00;102802.91;5065621;28;45984;-75
2023/10/04 07:51:42;;;;;;;;;2.67;2.00;;;;;16.03;100.00;102803.03;5060834;28;45491;-75
2023/10/04 07:54:07;;;;;;;;;2.67;2.00;;;;;16.07;100.00;102802.25;5039968;28;45671;-75
2023/10/04 07:56:34;;;;;;;;;2.67;2.67;;;;;16.10;100.00;102810.31;5049056;27;47986;-75
2023/10/04 07:59:01;;;;;;;;;5.67;4.33;;;;;16.17;100.00;102813.97;5050214;28;45518;-76
2023/10/04 08:01:28;;;;;;;;;8.00;5.33;;;;;16.27;100.00;102818.63;5048254;28;45610;-76
2023/10/04 08:03:55;;;;;;;;;6.33;4.00;;;;;16.37;100.00;102814.38;5057549;28;45660;-76
2023/10/04 08:06:20;;;;;;;;;6.00;4.67;;;;;16.41;100.00;102814.47;5070683;27;48484;-75
2023/10/04 08:08:46;;;;;;;;;6.00;3.00;;;;;16.43;100.00;102810.03;5050751;28;45566;-75
2023/10/04 08:11:12;;;;;;;;;5.00;5.00;;;;;16.50;100.00;102814.59;5072556;27;45659;-74
2023/10/04 08:13:40;;;;;;;;;5.33;3.33;;;;;16.60;100.00;102817.44;5060688;28;45581;-76
2023/10/04 08:16:05;;;;;;;;;6.33;4.00;;;;;16.64;100.00;102812.19;5060375;28;46665;-71
2023/10/04 08:18:35;;;;;;;;;9.00;5.00;;;;;16.71;100.00;102814.13;5054467;28;57919;-72
2023/10/04 08:21:07;;;;;;;;;4.00;3.00;;;;;16.82;100.00;102808.97;5038987;28;45545;-71
2023/10/04 08:23:33;;;;;;;;;5.33;4.00;;;;;16.93;100.00;102802.03;5054282;28;45600;-72
2023/10/04 08:25:58;;;;;;;;;6.67;5.33;;;;;17.05;100.00;102797.81;5056333;28;45812;-71
2023/10/04 08:28:24;;;;;;;;;8.00;5.00;;;;;17.15;100.00;102803.31;5049264;28;47481;-72
2023/10/04 08:30:51;;;;;;;;;8.33;5.00;;;;;17.22;100.00;102794.50;5062446;28;45484;-72
2023/10/04 08:33:19;;;;;;;;;8.67;4.67;;;;;17.33;100.00;102792.00;5058017;28;45577;-72
2023/10/04 08:35:46;;;;;;;;;7.00;4.00;;;;;17.42;100.00;102793.91;5056832;28;47068;-73
2023/10/04 08:38:12;;;;;;;;;6.00;3.00;;;;;17.50;100.00;102793.13;5046487;28;45382;-72
2023/10/04 08:40:42;;;;;;;;;7.00;4.00;;;;;17.60;100.00;102804.84;5035804;28;45466;-71
2023/10/04 08:43:08;;;;;;;;;5.67;4.00;;;;;17.70;100.00;102792.50;5056464;28;45459;-72
2023/10/04 08:45:34;;;;;;;;;7.33;5.00;;;;;17.74;100.00;102789.03;5049942;28;45540;-75
2023/10/04 08:48:00;;;;;;;;;10.00;4.00;;;;;17.84;100.00;102800.72;5053549;28;45554;-72
2023/10/04 08:50:40;;;;;;;;;3.33;3.00;;;;;17.91;100.00;102798.16;5051494;28;45560;-71
2023/10/04 08:53:17;;;;;;;;;4.00;4.00;;;;;17.96;100.00;102790.19;5057782;28;45384;-71
2023/10/04 08:55:48;;;;;;;;;6.33;4.00;;;;;18.01;100.00;102801.84;5057677;28;46429;-74
2023/10/04 08:58:16;;;;;;;;;6.33;4.00;;;;;18.07;100.00;102804.56;5051348;28;46139;-75
2023/10/04 09:00:45;;;;;;;;;7.33;5.00;;;;;18.13;100.00;102809.97;5052050;28;45627;-72
2023/10/04 09:03:15;;;;;;;;;5.67;4.00;;;;;18.22;100.00;102807.44;5052022;28;45722;-74
2023/10/04 09:05:46;;;;;;;;;7.00;4.00;;;;;18.29;100.00;102824.44;5050605;28;45631;-72
2023/10/04 09:08:11;;;;;;;;;5.00;5.00;;;;;18.36;100.00;102812.00;5052079;28;45475;-71
2023/10/04 09:10:40;;;;;;;;;4.33;4.33;;;;;18.42;100.00;102799.59;5053102;28;47047;-72
2023/10/04 09:13:06;;;;;;;;;6.33;4.00;;;;;18.48;100.00;102788.03;5055494;28;45450;-76
2023/10/04 09:15:31;;;;;;;;;7.00;4.00;;;;;18.56;100.00;102789.03;5042736;28;46682;-71
2023/10/04 09:17:57;;;;;;;;;13.33;5.00;;;;;18.66;100.00;102792.69;5053409;28;50656;-71
2023/10/04 09:20:31;;;;;;;;;5.33;4.00;;;;;18.71;100.00;102791.00;5056154;28;45496;-72
2023/10/04 09:23:00;;;;;;;;;10.67;5.00;;;;;18.78;100.00;102809.78;5058370;28;45543;-76
2023/10/04 09:25:36;;;;;;;;;8.33;4.00;;;;;18.86;100.00;102806.28;5049355;22;45713;-72
2023/10/04 09:28:04;;;;;;;;;6.00;3.33;;;;;18.89;100.00;102795.59;5069070;22;45537;-72
2023/10/04 09:30:29;;;;;;;;;8.00;4.00;;;;;18.91;100.00;102805.44;5088819;22;45543;-74
2023/10/04 09:32:58;;;;;;;;;4.67;2.67;;;;;18.99;100.00;102808.16;5094309;27;46015;-74
2023/10/04 09:35:41;;;;;;;;;3.00;3.00;;;;;19.05;100.00;102789.47;5095656;27;45625;-71
2023/10/04 09:38:19;;;;;;;;;3.67;3.33;;;;;19.13;100.00;102787.75;5060128;27;46413;-72
2023/10/04 09:40:56;;;;;;;;;4.00;3.00;;;;;19.21;100.00;102780.63;5084071;27;45564;-72
2023/10/04 09:43:42;;;;;;;;;2.00;2.00;;;;;19.26;100.00;102776.22;5085072;27;45620;-71
2023/10/04 09:46:14;;;;;;;;;3.33;2.00;;;;;19.27;100.00;102772.63;5082220;27;47870;-73
2023/10/04 09:48:58;;;;;;;;;7.67;2.67;;;;;19.30;100.00;102777.13;5092186;27;45712;-72
2023/10/04 09:51:23;;;;;;;;;5.00;2.67;;;;;19.35;100.00;102775.38;5066263;27;45629;-72
2023/10/04 09:53:49;;;;;;;;;5.67;2.67;;;;;19.38;100.00;102757.53;5062174;27;53639;-72
2023/10/04 09:56:16;;;;;;;;;6.00;3.00;;;;;19.46;100.00;102765.63;5079611;27;45537;-72
2023/10/04 09:58:49;;;;;;;;;4.00;3.00;;;;;19.61;100.00;102763.03;5111989;27;45341;-72
2023/10/04 10:01:15;;;;;;;;;4.00;2.67;;;;;19.68;100.00;102760.38;5097217;27;45600;-72
2023/10/04 10:04:02;;;;;;;;;7.67;4.00;;;;;19.77;100.00;102769.38;5078768;27;45561;-72
2023/10/04 10:06:33;;;;;;;;;5.33;2.00;;;;;19.85;100.00;102758.66;5085654;27;45903;-73
2023/10/04 10:09:00;;;;;;;;;3.33;2.00;;;;;19.95;100.00;102755.13;5080129;27;45558;-72
2023/10/04 10:11:27;;;;;;;;;6.00;3.33;;;;;20.02;100.00;102747.97;5080207;27;45322;-72
2023/10/04 10:13:54;;;;;;;;;6.00;3.00;;;;;20.05;100.00;102748.88;5078559;27;45541;-72
2023/10/04 10:16:19;;;;;;;;;5.33;2.00;;;;;20.07;100.00;102743.53;5062364;27;46819;-72
2023/10/04 10:18:47;;;;;;;;;6.67;2.33;;;;;20.09;100.00;102744.44;5079250;27;45258;-75
2023/10/04 10:21:12;;;;;;;;;3.00;2.67;;;;;20.12;100.00;102736.38;5079651;27;45364;-74
2023/10/04 10:24:03;;;;;;;;;6.00;3.00;;;;;20.19;100.00;102731.91;5097859;27;45287;-75
2023/10/04 10:26:29;;;;;;;;;3.00;2.00;;;;;20.24;100.00;102727.44;5098289;27;46876;-74
2023/10/04 10:29:04;;;;;;;;;4.67;3.00;;;;;20.30;100.00;102735.53;5097381;27;45424;-72
2023/10/04 10:31:29;;;;;;;;;5.00;3.00;;;;;20.37;100.00;102740.88;5096471;27;45366;-75
2023/10/04 10:33:57;;;;;;;;;3.00;1.67;;;;;20.45;100.00;102748.03;5094776;27;45319;-72
2023/10/04 10:36:27;;;;;;;;;4.00;1.33;;;;;20.49;100.00;102748.06;5097971;27;45919;-72
2023/10/04 10:38:56;;;;;;;;;4.00;2.00;;;;;20.54;100.00;102745.41;5083458;27;45382;-72
2023/10/04 10:41:27;;;;;;;;;3.00;2.67;;;;;20.58;100.00;102745.41;5100998;22;45392;-75
2023/10/04 10:44:11;;;;;;;;;6.00;2.00;;;;;20.66;100.00;102731.97;5100165;22;45575;-72
2023/10/04 10:47:08;;;;;;;;;2.67;2.00;;;;;20.67;100.00;102713.19;5070072;28;46930;-71
2023/10/04 10:49:40;;;;;;;;;5.00;2.00;;;;;20.69;100.00;102715.88;5072964;28;45331;-72
2023/10/04 10:52:30;;;;;;;;;2.00;2.00;;;;;20.62;100.00;102709.63;5074726;28;45335;-73
2023/10/04 10:54:58;;;;;;;;;2.00;1.33;;;;;20.57;100.00;102711.41;5054576;28;45475;-72
2023/10/04 10:57:27;;;;;;;;;3.00;1.00;;;;;20.49;100.00;102710.50;5076148;27;45730;-73
2023/10/04 10:59:55;;;;;;;;;3.00;1.67;;;;;20.42;100.00;102714.97;5068726;28;45779;-75
2023/10/04 11:02:21;;;;;;;;;2.67;2.00;;;;;20.44;100.00;102725.69;5058987;28;45317;-72
2023/10/04 11:04:47;;;;;;;;;2.67;2.00;;;;;20.49;100.00;102712.31;5059288;28;45171;-72
2023/10/04 11:07:13;;;;;;;;;3.00;2.00;;;;;20.58;100.00;102697.09;5173097;22;45663;-73
2023/10/04 11:09:39;;;;;;;;;2.00;2.00;;;;;20.67;100.00;102702.47;5056891;28;45344;-72
2023/10/04 11:12:08;;;;;;;;;4.67;1.00;;;;;20.74;100.00;102692.59;5057009;28;45297;-72
2023/10/04 11:14:35;;;;;;;;;2.67;1.33;;;;;20.79;100.00;102687.22;5053372;28;45480;-72
2023/10/04 11:17:01;;;;;;;;;1.00;1.00;;;;;20.84;100.00;102685.44;5055057;28;47388;-74
2023/10/04 11:19:26;;;;;;;;;2.33;1.33;;;;;20.90;100.00;102685.41;5055358;28;45439;-72
2023/10/04 11:21:52;;;;;;;;;2.00;1.00;;;;;20.96;100.00;102688.09;5054649;28;55709;-72